createdAt,value
2022-07-27T00:01:01.137Z,15.94
2022-07-27T00:05:50.712Z,15.93
2022-07-27T00:10:40.728Z,15.91
2022-07-27T00:15:33.068Z,15.90
2022-07-27T00:20:22.833Z,15.86
2022-07-27T00:25:16.919Z,15.81
2022-07-27T00:30:06.705Z,15.74
2022-07-27T00:34:58.771Z,15.69
2022-07-27T00:39:48.414Z,15.63
2022-07-27T00:44:38.121Z,15.62
2022-07-27T00:49:29.745Z,15.57
2022-07-27T00:54:22.296Z,15.52
2022-07-27T00:59:13.455Z,15.38
2022-07-27T01:04:03.228Z,15.31
2022-07-27T01:09:14.260Z,15.28
2022-07-27T01:14:06.469Z,15.26
2022-07-27T01:18:55.855Z,15.25
2022-07-27T01:23:47.984Z,15.26
2022-07-27T01:28:37.404Z,15.28
2022-07-27T01:33:28.603Z,15.25
2022-07-27T01:38:18.108Z,15.29
2022-07-27T01:43:10.195Z,15.34
2022-07-27T01:47:59.572Z,15.35
2022-07-27T01:52:49.176Z,15.37
2022-07-27T01:57:39.025Z,15.38
2022-07-27T02:02:31.195Z,15.38
2022-07-27T02:07:20.675Z,15.34
2022-07-27T02:12:22.756Z,15.27
2022-07-27T02:17:12.918Z,15.22
2022-07-27T02:22:07.261Z,15.14
2022-07-27T02:26:56.691Z,15.08
2022-07-27T02:31:46.617Z,15.02
2022-07-27T02:36:36.022Z,14.97
2022-07-27T02:41:28.206Z,14.90
2022-07-27T02:46:17.724Z,14.85
2022-07-27T02:51:07.275Z,14.78
2022-07-27T02:55:56.752Z,14.74
2022-07-27T03:00:49.041Z,14.70
2022-07-27T03:05:39.496Z,14.66
2022-07-27T03:10:29.015Z,14.62
2022-07-27T03:15:18.585Z,14.55
2022-07-27T03:20:12.148Z,14.52
2022-07-27T03:25:01.544Z,14.48
2022-07-27T03:29:51.022Z,14.49
2022-07-27T03:34:40.377Z,14.45
2022-07-27T03:39:32.580Z,14.47
2022-07-27T03:44:22.012Z,14.46
2022-07-27T03:49:14.903Z,14.49
2022-07-27T03:54:05.185Z,14.50
2022-07-27T03:58:57.481Z,14.48
2022-07-27T04:03:47.571Z,14.49
2022-07-27T04:08:37.881Z,14.54
2022-07-27T04:13:29.481Z,14.60
2022-07-27T04:18:22.691Z,14.60
2022-07-27T04:23:12.413Z,14.64
2022-07-27T04:28:01.850Z,14.67
2022-07-27T04:32:51.449Z,14.69
2022-07-27T04:37:58.521Z,14.71
2022-07-27T04:42:49.833Z,14.77
2022-07-27T04:47:39.450Z,14.85
2022-07-27T04:52:28.901Z,14.91
2022-07-27T04:57:21.044Z,14.96
2022-07-27T05:02:10.420Z,15.00
2022-07-27T05:06:59.887Z,15.05
2022-07-27T05:11:51.039Z,15.07
2022-07-27T05:16:44.467Z,15.12
2022-07-27T05:21:34.077Z,15.16
2022-07-27T05:26:25.559Z,15.21
2022-07-27T05:31:16.469Z,15.23
2022-07-27T05:36:10.702Z,15.23
2022-07-27T05:41:01.247Z,15.25
2022-07-27T05:45:52.347Z,15.29
2022-07-27T05:50:41.932Z,15.33
2022-07-27T05:55:38.492Z,15.36
2022-07-27T06:00:28.940Z,15.38
2022-07-27T06:05:18.336Z,15.46
2022-07-27T06:10:09.571Z,15.52
2022-07-27T06:15:01.956Z,15.60
2022-07-27T06:19:51.447Z,15.67
2022-07-27T06:24:57.289Z,15.77
2022-07-27T06:29:46.932Z,15.80
2022-07-27T06:34:46.783Z,15.90
2022-07-27T06:39:39.597Z,16.00
2022-07-27T06:44:29.071Z,16.07
2022-07-27T06:49:18.809Z,16.14
2022-07-27T06:54:11.455Z,16.16
2022-07-27T06:59:01.264Z,16.20
2022-07-27T07:03:51.019Z,16.20
2022-07-27T07:08:40.461Z,16.25
2022-07-27T07:13:37.273Z,16.35
2022-07-27T07:18:27.951Z,16.43
2022-07-27T07:23:18.707Z,16.50
2022-07-27T07:28:09.552Z,16.59
2022-07-27T07:33:01.894Z,16.67
2022-07-27T07:37:51.993Z,16.77
2022-07-27T07:42:55.335Z,16.83
2022-07-27T07:47:44.852Z,16.83
2022-07-27T07:52:37.433Z,16.91
2022-07-27T07:57:28.149Z,17.02
2022-07-27T08:02:17.764Z,17.14
2022-07-27T08:07:07.816Z,17.13
2022-07-27T08:11:59.941Z,17.06
2022-07-27T08:16:49.414Z,17.04
2022-07-27T08:21:42.009Z,16.99
2022-07-27T08:26:31.462Z,16.96
2022-07-27T08:31:26.526Z,16.89
2022-07-27T08:36:35.455Z,16.93
2022-07-27T08:41:26.929Z,17.20
2022-07-27T08:46:20.099Z,17.46
2022-07-27T08:51:12.601Z,17.73
2022-07-27T08:56:02.501Z,17.87
2022-07-27T09:00:52.516Z,18.22
2022-07-27T09:05:44.188Z,18.74
2022-07-27T09:10:38.397Z,19.39
2022-07-27T09:15:34.527Z,19.90
2022-07-27T09:20:24.554Z,20.14
2022-07-27T09:25:15.228Z,20.33
2022-07-27T09:30:09.036Z,20.42
2022-07-27T09:34:58.526Z,20.49
2022-07-27T09:39:48.122Z,20.71
2022-07-27T09:44:43.651Z,20.86
2022-07-27T09:49:37.459Z,21.08
2022-07-27T09:54:27.532Z,21.06
2022-07-27T09:59:20.806Z,20.80
2022-07-27T10:04:11.692Z,20.40
2022-07-27T10:09:04.752Z,20.07
2022-07-27T10:13:55.435Z,20.17
2022-07-27T10:18:55.585Z,20.40
2022-07-27T10:23:56.178Z,20.29
2022-07-27T10:28:58.837Z,20.63
2022-07-27T10:33:49.640Z,21.07
2022-07-27T10:38:48.743Z,21.56
2022-07-27T10:43:38.737Z,21.97
2022-07-27T10:48:47.801Z,22.46
2022-07-27T10:54:09.388Z,22.46
2022-07-27T10:58:52.535Z,22.01
2022-07-27T11:03:49.532Z,21.68
2022-07-27T11:08:47.068Z,21.75
2022-07-27T11:13:39.063Z,21.76
2022-07-27T11:18:29.362Z,21.78
2022-07-27T11:23:50.457Z,21.49
2022-07-27T11:28:34.945Z,21.04
2022-07-27T11:33:24.621Z,20.79
2022-07-27T11:38:14.083Z,20.62
2022-07-27T11:43:07.455Z,20.55
2022-07-27T11:48:02.099Z,20.54
2022-07-27T11:53:01.533Z,20.62
2022-07-27T11:57:51.403Z,20.53
2022-07-27T12:02:50.361Z,20.52
2022-07-27T12:07:41.876Z,20.57
2022-07-27T12:12:32.021Z,20.78
2022-07-27T12:17:23.795Z,20.96
2022-07-27T12:22:16.026Z,21.07
2022-07-27T12:27:09.984Z,21.19
2022-07-27T12:32:04.150Z,21.44
2022-07-27T12:36:53.649Z,21.53
2022-07-27T12:41:46.121Z,21.66
2022-07-27T12:46:35.688Z,21.69
2022-07-27T12:51:26.483Z,21.73
2022-07-27T12:56:16.038Z,21.77
2022-07-27T13:01:19.734Z,22.06
2022-07-27T13:06:13.073Z,22.19
2022-07-27T13:11:02.730Z,22.17
2022-07-27T13:15:52.137Z,22.18
2022-07-27T13:20:44.904Z,22.36
2022-07-27T13:25:37.266Z,22.52
2022-07-27T13:30:31.084Z,22.59
2022-07-27T13:35:20.596Z,22.67
2022-07-27T13:40:13.191Z,22.30
2022-07-27T13:45:09.767Z,21.98
2022-07-27T13:50:00.593Z,21.73
2022-07-27T13:54:50.130Z,21.39
2022-07-27T13:59:48.011Z,21.34
2022-07-27T14:04:38.339Z,21.19
2022-07-27T14:09:57.735Z,21.06
2022-07-27T14:14:49.861Z,20.86
2022-07-27T14:19:39.360Z,20.80
2022-07-27T14:24:28.838Z,20.98
2022-07-27T14:29:18.362Z,21.36
2022-07-27T14:34:10.688Z,21.51
2022-07-27T14:39:00.138Z,21.67
2022-07-27T14:43:51.199Z,21.82
2022-07-27T14:53:52.757Z,21.93
2022-07-27T14:58:44.044Z,22.06
2022-07-27T15:03:33.511Z,22.12
2022-07-27T15:08:24.661Z,22.29
2022-07-27T15:13:16.829Z,22.12
2022-07-27T15:18:07.991Z,22.37
2022-07-27T15:22:58.963Z,22.37
2022-07-27T15:27:48.533Z,22.31
2022-07-27T15:32:40.838Z,22.14
2022-07-27T15:37:30.368Z,21.89
2022-07-27T15:42:22.365Z,21.81
2022-07-27T15:47:12.934Z,21.68
2022-07-27T15:52:05.055Z,21.57
2022-07-27T15:56:54.496Z,21.69
2022-07-27T16:01:44.134Z,21.80
2022-07-27T16:06:39.042Z,21.97
2022-07-27T16:11:32.420Z,22.02
2022-07-27T16:16:25.221Z,21.85
2022-07-27T16:21:14.694Z,21.78
2022-07-27T16:26:05.896Z,21.69
2022-07-27T16:30:58.570Z,21.73
2022-07-27T16:35:48.046Z,21.73
2022-07-27T16:40:37.821Z,21.75
2022-07-27T16:45:27.597Z,21.76
2022-07-27T16:50:20.082Z,21.70
2022-07-27T16:55:16.230Z,21.61
2022-07-27T17:00:08.033Z,21.45
2022-07-27T17:04:58.015Z,21.42
2022-07-27T17:09:50.188Z,21.19
2022-07-27T17:14:44.318Z,21.10
2022-07-27T17:19:34.440Z,21.04
2022-07-27T17:24:24.980Z,21.02
2022-07-27T17:29:17.385Z,20.90
2022-07-27T17:34:06.970Z,20.76
2022-07-27T17:38:56.417Z,20.69
2022-07-27T17:43:46.276Z,20.67
2022-07-27T17:48:38.645Z,20.56
2022-07-27T17:53:31.575Z,20.64
2022-07-27T17:58:21.267Z,20.51
2022-07-27T18:03:12.938Z,20.40
2022-07-27T18:08:10.859Z,20.36
2022-07-27T18:13:00.380Z,20.31
2022-07-27T18:17:50.137Z,20.33
2022-07-27T18:22:39.990Z,20.21
2022-07-27T18:27:34.884Z,20.03
2022-07-27T18:32:27.202Z,19.86
2022-07-27T18:37:17.953Z,19.85
2022-07-27T18:42:12.050Z,19.78
2022-07-27T18:47:04.369Z,19.65
2022-07-27T18:51:54.063Z,19.47
2022-07-27T18:56:43.650Z,19.39
2022-07-27T19:01:34.041Z,19.31
2022-07-27T19:06:28.658Z,19.19
2022-07-27T19:11:21.734Z,19.16
2022-07-27T19:16:11.613Z,19.06
2022-07-27T19:21:02.936Z,19.00
2022-07-27T19:26:00.835Z,18.86
2022-07-27T19:30:50.493Z,18.75
2022-07-27T19:35:40.523Z,18.70
2022-07-27T19:40:46.153Z,18.62
2022-07-27T19:45:42.117Z,18.60
2022-07-27T19:50:31.906Z,18.60
2022-07-27T19:55:21.718Z,18.47
2022-07-27T20:00:11.928Z,18.42
2022-07-27T20:05:04.865Z,18.37
2022-07-27T20:09:55.232Z,18.32
2022-07-27T20:14:48.152Z,18.33
2022-07-27T20:19:49.249Z,18.30
2022-07-27T20:24:41.299Z,18.21
2022-07-27T20:29:31.747Z,18.01
2022-07-27T20:34:25.678Z,17.92
2022-07-27T20:39:17.924Z,17.84
2022-07-27T20:44:16.128Z,17.83
2022-07-27T20:49:06.337Z,17.73
2022-07-27T20:53:59.285Z,17.61
2022-07-27T20:58:49.801Z,17.57
2022-07-27T21:03:44.208Z,17.51
2022-07-27T21:08:34.571Z,17.51
2022-07-27T21:13:28.255Z,17.45
2022-07-27T21:18:23.443Z,17.47
2022-07-27T21:23:30.714Z,17.44
2022-07-27T21:28:25.204Z,17.74
2022-07-27T21:33:18.677Z,17.80
2022-07-27T21:38:09.645Z,17.79
2022-07-27T21:43:03.275Z,17.87
2022-07-27T21:47:53.114Z,17.77
2022-07-27T21:52:42.952Z,17.82
2022-07-27T21:57:33.213Z,17.87
2022-07-27T22:02:33.456Z,17.81
2022-07-27T22:07:24.298Z,17.76
2022-07-27T22:12:17.854Z,17.72
2022-07-27T22:17:13.847Z,17.70
2022-07-27T22:22:07.484Z,17.64
2022-07-27T22:26:58.005Z,17.63
2022-07-27T22:31:51.352Z,17.59
2022-07-27T22:36:41.924Z,17.50
2022-07-27T22:41:35.099Z,17.47
2022-07-27T22:46:26.218Z,17.39
2022-07-27T22:51:16.486Z,17.39
2022-07-27T22:56:06.282Z,17.30
2022-07-27T23:01:00.087Z,17.38
2022-07-27T23:06:00.037Z,17.37
2022-07-27T23:10:51.024Z,17.36
2022-07-27T23:15:42.007Z,17.36
2022-07-27T23:20:35.860Z,17.37
2022-07-27T23:25:36.416Z,17.37
2022-07-27T23:30:28.966Z,17.39
2022-07-27T23:35:20.214Z,17.37
2022-07-27T23:40:16.427Z,17.31
2022-07-27T23:45:08.651Z,17.19
2022-07-27T23:49:59.021Z,17.03
2022-07-27T23:54:49.426Z,16.95
2022-07-27T23:59:42.900Z,16.90
